Time;durP1;ratioP1;P1;durP2;ratioP2;P2;SDS_P1;SDS_P2;PMS_P1;PMS_P2;Temp;Humidity;BMP_temperature;BMP_pressure;BME280_temperature;BME280_humidity;BME280_pressure;Samples;Min_cycle;Max_cycle;Signal;HPM_P1;HPM_P2
2022/12/20 00:01:45;;;;;;;38.33;24.57;;;;;;;;;;5006716;28;20200;-77
2022/12/20 00:04:11;;;;;;;40.27;26.57;;;;;;;;;;5006040;28;20185;-78
2022/12/20 00:06:37;;;;;;;38.47;24.67;;;;;;;;;;5009603;28;20183;-77
2022/12/20 00:09:05;;;;;;;35.13;24.13;;;;;;;;;;5005723;28;20305;-79
2022/12/20 00:11:32;;;;;;;33.80;23.87;;;;;;;;;;4993197;28;20602;-79
2022/12/20 00:13:58;;;;;;;32.33;22.50;;;;;;;;;;5003758;28;20179;-78
2022/12/20 00:16:26;;;;;;;33.80;22.83;;;;;;;;;;5001673;28;20183;-78
2022/12/20 00:18:56;;;;;;;34.03;22.53;;;;;;;;;;4995933;28;20207;-77
2022/12/20 00:21:23;;;;;;;32.50;20.93;;;;;;;;;;5005271;28;20207;-77
2022/12/20 00:23:49;;;;;;;31.47;20.40;;;;;;;;;;5016182;28;20182;-77
2022/12/20 00:26:16;;;;;;;35.97;23.93;;;;;;;;;;5013860;28;20222;-79
2022/12/20 00:28:44;;;;;;;36.27;23.67;;;;;;;;;;5007651;28;20205;-77
2022/12/20 00:31:11;;;;;;;35.37;23.80;;;;;;;;;;5018482;28;20255;-77
2022/12/20 00:33:38;;;;;;;36.47;24.10;;;;;;;;;;5004510;28;20179;-82
2022/12/20 00:36:05;;;;;;;30.00;20.77;;;;;;;;;;4992142;28;20233;-78
2022/12/20 00:38:32;;;;;;;31.17;20.80;;;;;;;;;;5007755;28;20214;-78
2022/12/20 00:41:03;;;;;;;29.93;20.67;;;;;;;;;;5007690;28;20261;-78
2022/12/20 00:43:29;;;;;;;36.10;23.47;;;;;;;;;;5016578;28;20638;-78
2022/12/20 00:45:55;;;;;;;35.93;22.87;;;;;;;;;;5005407;28;20183;-77
2022/12/20 00:48:21;;;;;;;31.47;20.90;;;;;;;;;;5009828;28;20241;-78
2022/12/20 00:50:49;;;;;;;33.63;22.10;;;;;;;;;;5007141;28;20219;-77
2022/12/20 00:53:15;;;;;;;30.57;20.03;;;;;;;;;;5009011;28;20229;-79
2022/12/20 00:55:45;;;;;;;30.17;20.83;;;;;;;;;;5005984;28;20217;-83
2022/12/20 00:58:11;;;;;;;30.83;21.63;;;;;;;;;;5003227;28;20645;-78
2022/12/20 01:00:38;;;;;;;31.67;20.90;;;;;;;;;;5010541;28;20199;-80
2022/12/20 01:03:04;;;;;;;29.93;20.30;;;;;;;;;;5008282;28;20238;-77
2022/12/20 01:05:30;;;;;;;32.23;22.77;;;;;;;;;;5009834;28;20185;-78
2022/12/20 01:07:56;;;;;;;30.67;21.20;;;;;;;;;;5007265;28;20570;-77
2022/12/20 01:10:23;;;;;;;29.40;19.67;;;;;;;;;;5004722;28;20566;-80
2022/12/20 01:12:49;;;;;;;32.80;22.00;;;;;;;;;;5002916;28;20180;-80
2022/12/20 01:15:15;;;;;;;32.30;22.03;;;;;;;;;;5012326;28;20385;-79
2022/12/20 01:17:42;;;;;;;34.20;22.10;;;;;;;;;;4992393;28;20211;-77
2022/12/20 01:20:08;;;;;;;31.20;20.83;;;;;;;;;;5001174;28;20195;-77
2022/12/20 01:22:35;;;;;;;29.20;19.77;;;;;;;;;;5005475;28;20214;-78
2022/12/20 01:25:01;;;;;;;34.07;22.47;;;;;;;;;;5003418;28;20179;-77
2022/12/20 01:27:29;;;;;;;32.57;22.77;;;;;;;;;;5003451;28;20180;-78
2022/12/20 01:29:55;;;;;;;31.77;22.33;;;;;;;;;;5009977;28;20190;-77
2022/12/20 01:32:21;;;;;;;30.90;20.57;;;;;;;;;;5002202;28;20199;-77
2022/12/20 01:34:47;;;;;;;33.10;21.93;;;;;;;;;;5014208;28;20552;-77
2022/12/20 01:37:13;;;;;;;31.30;21.43;;;;;;;;;;5004178;28;20191;-78
2022/12/20 01:39:39;;;;;;;39.47;22.90;;;;;;;;;;5007286;28;20222;-78
2022/12/20 01:42:06;;;;;;;33.77;22.70;;;;;;;;;;5008313;28;20210;-78
2022/12/20 01:44:32;;;;;;;34.80;23.00;;;;;;;;;;5020335;28;20189;-79
2022/12/20 01:46:58;;;;;;;31.23;21.87;;;;;;;;;;5011512;28;20320;-80
2022/12/20 01:49:27;;;;;;;39.03;23.07;;;;;;;;;;5012436;28;20190;-80
2022/12/20 01:52:01;;;;;;;36.20;21.83;;;;;;;;;;5005784;28;20211;-78
2022/12/20 01:54:31;;;;;;;37.23;24.10;;;;;;;;;;5013970;28;20185;-77
2022/12/20 01:57:00;;;;;;;39.23;24.00;;;;;;;;;;5012027;28;20183;-78
2022/12/20 01:59:26;;;;;;;38.03;24.37;;;;;;;;;;5010504;28;20218;-78
2022/12/20 02:01:53;;;;;;;38.30;23.60;;;;;;;;;;5011775;28;20694;-80
2022/12/20 02:04:19;;;;;;;34.60;22.60;;;;;;;;;;5000889;28;20183;-79
2022/12/20 02:06:45;;;;;;;36.10;23.33;;;;;;;;;;5010730;28;20214;-80
2022/12/20 02:09:12;;;;;;;38.97;24.53;;;;;;;;;;5001398;28;20187;-79
2022/12/20 02:11:57;;;;;;;43.00;25.17;;;;;;;;;;5002696;28;20234;-78
2022/12/20 02:14:34;;;;;;;36.60;24.20;;;;;;;;;;4983887;28;20281;-78
2022/12/20 02:17:19;;;;;;;33.90;21.50;;;;;;;;;;5011753;28;20190;-78
2022/12/20 02:19:54;;;;;;;36.33;22.30;;;;;;;;;;5003807;28;20206;-78
2022/12/20 02:22:50;;;;;;;32.57;21.00;;;;;;;;;;5003302;28;20214;-78
2022/12/20 02:25:22;;;;;;;31.43;20.23;;;;;;;;;;4967784;28;20207;-80
2022/12/20 02:27:52;;;;;;;31.40;20.23;;;;;;;;;;4999921;28;20202;-77
2022/12/20 02:30:22;;;;;;;28.63;19.20;;;;;;;;;;4975190;28;20198;-78
2022/12/20 02:32:55;;;;;;;30.17;20.00;;;;;;;;;;4982781;28;20783;-77
2022/12/20 02:35:24;;;;;;;28.73;20.17;;;;;;;;;;5011168;28;20198;-79
2022/12/20 02:37:58;;;;;;;30.33;21.27;;;;;;;;;;5008096;28;20203;-78
2022/12/20 02:40:28;;;;;;;29.67;20.17;;;;;;;;;;5002477;28;20691;-80
2022/12/20 02:42:59;;;;;;;26.97;18.30;;;;;;;;;;5005268;28;20240;-79
2022/12/20 02:45:27;;;;;;;25.97;18.47;;;;;;;;;;5006306;28;20219;-81
2022/12/20 02:48:11;;;;;;;27.63;19.17;;;;;;;;;;5005718;28;20706;-80
2022/12/20 02:50:39;;;;;;;28.70;19.50;;;;;;;;;;5015525;28;20238;-79
2022/12/20 02:53:06;;;;;;;25.20;18.00;;;;;;;;;;5010253;28;20194;-77
2022/12/20 02:55:52;;;;;;;25.47;17.67;;;;;;;;;;5011580;28;20286;-78
2022/12/20 02:58:26;;;;;;;27.00;18.80;;;;;;;;;;4991151;28;20254;-78
2022/12/20 03:00:54;;;;;;;30.77;18.93;;;;;;;;;;5011646;28;20203;-79
2022/12/20 03:03:23;;;;;;;31.07;19.67;;;;;;;;;;5006904;28;20192;-79
2022/12/20 03:05:54;;;;;;;32.70;19.93;;;;;;;;;;5006141;28;20179;-78
2022/12/20 03:08:22;;;;;;;38.27;21.47;;;;;;;;;;5011110;28;20212;-78
2022/12/20 03:10:49;;;;;;;31.30;20.67;;;;;;;;;;5014451;28;21617;-79
2022/12/20 03:13:15;;;;;;;31.17;20.93;;;;;;;;;;5011083;28;20212;-79
2022/12/20 03:15:48;;;;;;;28.50;19.90;;;;;;;;;;4993039;28;20195;-77
2022/12/20 03:18:15;;;;;;;33.73;20.93;;;;;;;;;;5014398;28;22061;-78
2022/12/20 03:20:41;;;;;;;28.97;19.37;;;;;;;;;;5006255;28;20283;-78
2022/12/20 03:23:07;;;;;;;30.07;19.03;;;;;;;;;;4997586;28;20206;-80
2022/12/20 03:25:34;;;;;;;28.47;19.33;;;;;;;;;;5011323;28;20182;-78
2022/12/20 03:28:01;;;;;;;25.43;17.40;;;;;;;;;;5006286;28;20180;-78
2022/12/20 03:30:28;;;;;;;24.80;16.90;;;;;;;;;;4995473;28;20230;-78
2022/12/20 03:32:54;;;;;;;22.93;17.23;;;;;;;;;;5019358;28;20865;-78
2022/12/20 03:35:20;;;;;;;23.87;17.60;;;;;;;;;;5010981;28;21021;-78
2022/12/20 03:37:46;;;;;;;25.07;18.10;;;;;;;;;;5002854;28;20213;-78
2022/12/20 03:40:13;;;;;;;23.73;16.93;;;;;;;;;;4996855;28;20184;-77
2022/12/20 03:42:39;;;;;;;21.93;16.40;;;;;;;;;;4996337;28;20183;-81
2022/12/20 03:45:06;;;;;;;20.70;16.03;;;;;;;;;;5007220;28;20195;-81
2022/12/20 03:47:33;;;;;;;23.13;16.33;;;;;;;;;;5012737;28;20187;-77
2022/12/20 03:49:59;;;;;;;21.90;15.60;;;;;;;;;;5007684;28;20201;-78
2022/12/20 03:52:27;;;;;;;22.27;15.90;;;;;;;;;;5004393;28;20226;-77
2022/12/20 03:54:53;;;;;;;24.43;15.87;;;;;;;;;;4987686;28;20197;-78
2022/12/20 03:57:23;;;;;;;18.80;13.93;;;;;;;;;;5001040;28;20183;-77
2022/12/20 03:59:53;;;;;;;19.60;13.50;;;;;;;;;;5009859;28;20225;-80
2022/12/20 04:02:20;;;;;;;19.57;14.23;;;;;;;;;;5009401;28;20211;-79
2022/12/20 04:04:47;;;;;;;20.27;14.60;;;;;;;;;;5013218;28;20175;-78
2022/12/20 04:07:14;;;;;;;17.97;12.83;;;;;;;;;;5014029;28;20194;-77
2022/12/20 04:09:44;;;;;;;16.70;12.20;;;;;;;;;;4979625;28;20225;-78
2022/12/20 04:12:12;;;;;;;15.47;11.57;;;;;;;;;;5006953;28;20868;-79
2022/12/20 04:14:39;;;;;;;13.98;11.63;;;;;;;;;;5003206;28;20434;-78
2022/12/20 04:17:06;;;;;;;16.30;11.43;;;;;;;;;;5000321;28;20262;-78
2022/12/20 04:19:33;;;;;;;12.47;10.20;;;;;;;;;;4988851;28;20814;-78
2022/12/20 04:22:00;;;;;;;15.73;9.83;;;;;;;;;;4998649;28;20289;-78
2022/12/20 04:24:33;;;;;;;12.93;9.83;;;;;;;;;;5005319;28;20214;-81
2022/12/20 04:27:12;;;;;;;12.73;9.90;;;;;;;;;;4987765;28;20191;-78
2022/12/20 04:29:38;;;;;;;13.07;9.03;;;;;;;;;;5008686;28;20194;-80
2022/12/20 04:32:08;;;;;;;12.20;9.53;;;;;;;;;;5003980;28;20211;-81
2022/12/20 04:34:34;;;;;;;13.40;9.77;;;;;;;;;;5003018;28;20515;-79
2022/12/20 04:37:00;;;;;;;12.97;9.83;;;;;;;;;;5011177;28;20198;-81
2022/12/20 04:39:37;;;;;;;11.93;9.70;;;;;;;;;;5001495;28;20214;-79
2022/12/20 04:42:16;;;;;;;16.43;10.60;;;;;;;;;;5007949;28;20203;-79
2022/12/20 04:44:43;;;;;;;13.37;10.80;;;;;;;;;;5006085;28;20234;-78
2022/12/20 04:47:10;;;;;;;12.90;9.77;;;;;;;;;;5006321;28;20187;-77
2022/12/20 04:49:36;;;;;;;14.17;10.10;;;;;;;;;;5009305;28;20218;-78
2022/12/20 04:54:48;;;;;;;14.30;9.57;;;;;;;;;;4999473;28;20202;-78
2022/12/20 04:57:22;;;;;;;12.70;9.43;;;;;;;;;;5004927;28;20216;-80
2022/12/20 04:59:49;;;;;;;15.93;9.60;;;;;;;;;;5014281;28;20257;-78
2022/12/20 05:02:15;;;;;;;12.30;9.17;;;;;;;;;;5014806;28;20199;-78
2022/12/20 05:04:49;;;;;;;12.70;9.60;;;;;;;;;;5009252;28;20221;-80
2022/12/20 05:07:15;;;;;;;12.50;9.43;;;;;;;;;;4987675;28;20200;-78
2022/12/20 05:09:47;;;;;;;15.07;10.37;;;;;;;;;;5007377;28;20207;-79
2022/12/20 05:12:13;;;;;;;14.40;10.53;;;;;;;;;;5017372;28;20198;-78
2022/12/20 05:14:39;;;;;;;16.07;10.03;;;;;;;;;;5002294;28;20187;-79
2022/12/20 05:17:06;;;;;;;12.70;10.37;;;;;;;;;;5002296;28;20187;-79
2022/12/20 05:19:32;;;;;;;14.77;11.33;;;;;;;;;;5011372;28;20318;-79
2022/12/20 05:27:43;;;;;;;14.67;10.77;;;;;;;;;;5013905;28;20226;-80
2022/12/20 05:30:10;;;;;;;14.40;10.80;;;;;;;;;;5012992;28;20199;-80
2022/12/20 05:32:36;;;;;;;14.50;10.33;;;;;;;;;;5004822;28;20192;-77
2022/12/20 05:35:03;;;;;;;12.20;9.83;;;;;;;;;;4992904;28;20238;-79
2022/12/20 05:37:30;;;;;;;15.83;11.03;;;;;;;;;;5000660;28;20180;-78
2022/12/20 05:40:03;;;;;;;13.17;10.40;;;;;;;;;;5004716;28;20712;-79
2022/12/20 05:42:30;;;;;;;13.43;10.47;;;;;;;;;;4986747;28;20730;-78
2022/12/20 05:44:56;;;;;;;13.73;10.70;;;;;;;;;;5003513;28;20706;-80
2022/12/20 05:47:23;;;;;;;14.23;12.00;;;;;;;;;;5011574;28;20431;-80
2022/12/20 05:49:58;;;;;;;14.97;11.37;;;;;;;;;;5008138;28;20186;-78
2022/12/20 05:52:24;;;;;;;14.23;10.93;;;;;;;;;;4987628;28;20636;-80
2022/12/20 05:54:51;;;;;;;15.77;11.20;;;;;;;;;;5018374;28;20229;-81
2022/12/20 05:57:20;;;;;;;14.53;11.00;;;;;;;;;;4997111;28;20194;-81
2022/12/20 05:59:46;;;;;;;17.03;11.87;;;;;;;;;;5006152;28;20215;-79
2022/12/20 06:02:17;;;;;;;13.20;10.37;;;;;;;;;;4975576;28;20218;-78
2022/12/20 06:04:46;;;;;;;16.53;11.60;;;;;;;;;;5008613;28;20302;-78
2022/12/20 06:07:18;;;;;;;13.70;11.07;;;;;;;;;;4992334;28;20183;-78
2022/12/20 06:09:47;;;;;;;14.83;10.50;;;;;;;;;;4988455;28;20194;-80
2022/12/20 06:12:16;;;;;;;13.20;10.40;;;;;;;;;;5003705;28;20228;-78
2022/12/20 06:14:43;;;;;;;13.53;10.43;;;;;;;;;;5004385;28;20211;-78
2022/12/20 06:17:11;;;;;;;15.80;11.87;;;;;;;;;;5005260;28;20191;-78
2022/12/20 06:19:40;;;;;;;16.07;12.07;;;;;;;;;;5000715;28;20575;-80
2022/12/20 06:22:08;;;;;;;15.50;12.10;;;;;;;;;;5002243;28;20905;-79
2022/12/20 06:24:41;;;;;;;15.40;11.17;;;;;;;;;;5004084;28;20772;-79
2022/12/20 06:27:09;;;;;;;14.50;11.67;;;;;;;;;;4986089;28;20218;-78
2022/12/20 06:29:36;;;;;;;15.17;10.87;;;;;;;;;;5007982;28;20552;-78
2022/12/20 06:32:07;;;;;;;15.50;11.67;;;;;;;;;;5000565;28;20226;-78
2022/12/20 06:34:33;;;;;;;16.20;11.40;;;;;;;;;;4997693;28;20206;-80
2022/12/20 06:37:00;;;;;;;14.33;10.57;;;;;;;;;;5000047;28;20273;-78
2022/12/20 06:39:30;;;;;;;16.30;12.17;;;;;;;;;;4997438;28;22009;-77
2022/12/20 06:42:01;;;;;;;16.07;11.90;;;;;;;;;;5002286;28;20701;-76
2022/12/20 06:44:28;;;;;;;15.63;11.20;;;;;;;;;;4999486;28;21321;-77
2022/12/20 06:46:54;;;;;;;15.00;11.17;;;;;;;;;;5001380;28;20184;-75
2022/12/20 06:49:21;;;;;;;15.83;11.77;;;;;;;;;;4996709;28;20221;-75
2022/12/20 06:51:48;;;;;;;17.30;11.90;;;;;;;;;;4998921;28;20207;-76
2022/12/20 06:54:15;;;;;;;17.60;11.67;;;;;;;;;;5006349;28;20620;-75
2022/12/20 06:56:41;;;;;;;15.33;11.40;;;;;;;;;;5008132;28;20194;-77
2022/12/20 06:59:09;;;;;;;14.00;10.50;;;;;;;;;;4993369;28;20581;-78
2022/12/20 07:01:35;;;;;;;14.93;11.80;;;;;;;;;;5007198;28;20446;-75
2022/12/20 07:04:01;;;;;;;14.63;11.15;;;;;;;;;;4982859;28;20450;-79
2022/12/20 07:06:28;;;;;;;13.48;10.48;;;;;;;;;;5010700;28;20441;-77
2022/12/20 07:08:55;;;;;;;13.37;10.23;;;;;;;;;;5002297;28;20691;-76
2022/12/20 07:11:21;;;;;;;13.37;9.93;;;;;;;;;;4997037;28;20236;-76
2022/12/20 07:13:49;;;;;;;12.60;9.77;;;;;;;;;;4995528;28;20229;-76
2022/12/20 07:16:15;;;;;;;11.77;9.37;;;;;;;;;;4996891;28;20261;-76
2022/12/20 07:18:41;;;;;;;10.57;8.83;;;;;;;;;;4999778;28;20304;-77
2022/12/20 07:21:08;;;;;;;14.30;9.80;;;;;;;;;;4997046;28;20207;-77
2022/12/20 07:23:34;;;;;;;12.77;10.50;;;;;;;;;;4995130;28;20206;-77
2022/12/20 07:26:02;;;;;;;13.88;12.25;;;;;;;;;;4978182;28;20435;-77
2022/12/20 07:28:28;;;;;;;13.73;10.30;;;;;;;;;;5000032;28;20175;-77
2022/12/20 07:30:55;;;;;;;11.90;9.90;;;;;;;;;;4995001;28;20234;-76
2022/12/20 07:33:21;;;;;;;13.10;11.07;;;;;;;;;;4997161;28;20434;-76
2022/12/20 07:35:47;;;;;;;11.97;9.57;;;;;;;;;;5003249;28;20184;-76
2022/12/20 07:38:13;;;;;;;14.23;9.73;;;;;;;;;;5005722;28;20222;-77
2022/12/20 07:40:41;;;;;;;15.00;10.53;;;;;;;;;;5003474;28;20876;-76
2022/12/20 07:43:07;;;;;;;13.53;10.10;;;;;;;;;;4997183;28;20607;-77
2022/12/20 07:45:36;;;;;;;13.80;9.13;;;;;;;;;;4976806;28;20178;-73
2022/12/20 07:48:03;;;;;;;12.43;9.13;;;;;;;;;;4994621;28;20191;-75
2022/12/20 07:50:31;;;;;;;12.00;9.33;;;;;;;;;;5000059;28;20207;-75
2022/12/20 07:52:57;;;;;;;13.10;9.47;;;;;;;;;;4995945;28;20187;-74
2022/12/20 07:55:23;;;;;;;13.73;9.70;;;;;;;;;;5000621;28;20192;-75
2022/12/20 07:57:52;;;;;;;11.33;8.43;;;;;;;;;;4996951;28;20241;-75
2022/12/20 08:00:18;;;;;;;13.93;8.93;;;;;;;;;;5000909;28;20208;-75
2022/12/20 08:03:06;;;;;;;10.97;8.80;;;;;;;;;;4996815;28;20183;-76
2022/12/20 08:05:33;;;;;;;12.40;8.33;;;;;;;;;;5003433;28;20549;-76
2022/12/20 08:08:01;;;;;;;11.13;8.60;;;;;;;;;;5000774;28;20182;-75
2022/12/20 08:10:28;;;;;;;12.07;8.80;;;;;;;;;;5001764;28;20682;-76
2022/12/20 08:12:54;;;;;;;12.17;8.50;;;;;;;;;;5000307;28;20246;-76
2022/12/20 08:15:21;;;;;;;13.17;9.03;;;;;;;;;;5000526;28;20176;-76
2022/12/20 08:17:48;;;;;;;11.00;7.73;;;;;;;;;;5004665;28;20207;-75
2022/12/20 08:20:14;;;;;;;11.60;8.47;;;;;;;;;;5007543;28;20207;-75
2022/12/20 08:22:41;;;;;;;9.47;7.50;;;;;;;;;;5008961;28;20194;-75
2022/12/20 08:25:07;;;;;;;11.60;8.63;;;;;;;;;;5006225;28;20215;-75
2022/12/20 08:27:33;;;;;;;12.27;8.80;;;;;;;;;;5007419;28;20191;-76
2022/12/20 08:29:59;;;;;;;12.57;8.40;;;;;;;;;;5002423;28;20188;-76
2022/12/20 08:32:26;;;;;;;12.23;8.77;;;;;;;;;;5004477;28;20718;-75
2022/12/20 08:34:52;;;;;;;11.47;8.67;;;;;;;;;;5005297;28;20218;-76
2022/12/20 08:37:19;;;;;;;10.83;8.50;;;;;;;;;;5001545;28;20561;-76
2022/12/20 08:39:45;;;;;;;11.80;9.00;;;;;;;;;;5002235;28;20687;-76
2022/12/20 08:42:12;;;;;;;10.87;8.67;;;;;;;;;;5000495;28;20653;-75
2022/12/20 08:44:38;;;;;;;12.77;8.73;;;;;;;;;;4999807;28;20207;-77
2022/12/20 08:47:04;;;;;;;10.60;8.30;;;;;;;;;;5001004;28;20237;-78
2022/12/20 08:49:30;;;;;;;10.70;8.10;;;;;;;;;;4999699;28;20203;-75
2022/12/20 08:51:56;;;;;;;9.03;7.33;;;;;;;;;;5005546;28;20211;-75
2022/12/20 08:54:23;;;;;;;9.80;7.43;;;;;;;;;;5000295;28;20218;-74
2022/12/20 08:56:49;;;;;;;8.73;7.57;;;;;;;;;;5003228;28;20219;-76
2022/12/20 08:59:15;;;;;;;11.10;7.67;;;;;;;;;;5002524;28;20230;-74
2022/12/20 09:01:41;;;;;;;10.27;6.97;;;;;;;;;;4994039;28;20196;-74
2022/12/20 09:04:09;;;;;;;11.53;7.87;;;;;;;;;;4996644;28;20273;-74
2022/12/20 09:06:35;;;;;;;9.27;7.93;;;;;;;;;;4996159;28;20298;-74
2022/12/20 09:09:02;;;;;;;12.00;8.30;;;;;;;;;;4999200;28;20479;-75
2022/12/20 09:11:28;;;;;;;11.07;9.40;;;;;;;;;;4994802;28;20697;-74
2022/12/20 09:13:56;;;;;;;14.30;8.77;;;;;;;;;;4998456;28;20184;-74
2022/12/20 09:16:23;;;;;;;9.87;8.10;;;;;;;;;;5001948;28;20808;-74
2022/12/20 09:18:50;;;;;;;10.63;8.07;;;;;;;;;;5000298;28;20257;-74
2022/12/20 09:21:16;;;;;;;9.53;7.20;;;;;;;;;;4999797;28;20199;-74
2022/12/20 09:23:42;;;;;;;8.40;7.03;;;;;;;;;;5003874;28;20586;-74
2022/12/20 09:26:13;;;;;;;8.73;7.03;;;;;;;;;;5000975;28;20318;-74
2022/12/20 09:28:41;;;;;;;10.73;8.37;;;;;;;;;;4999857;28;20184;-74
2022/12/20 09:31:08;;;;;;;10.00;7.17;;;;;;;;;;4999032;28;20548;-74
2022/12/20 09:33:34;;;;;;;8.70;7.13;;;;;;;;;;4998781;28;20183;-74
2022/12/20 09:36:01;;;;;;;10.57;7.80;;;;;;;;;;4998812;28;20184;-74
2022/12/20 09:38:27;;;;;;;8.93;7.33;;;;;;;;;;4999037;28;20202;-74
2022/12/20 09:40:55;;;;;;;10.20;7.20;;;;;;;;;;4998350;28;20202;-74
2022/12/20 09:43:22;;;;;;;9.97;7.57;;;;;;;;;;5001705;28;20211;-74
2022/12/20 09:45:50;;;;;;;9.73;7.10;;;;;;;;;;4999646;28;20187;-74
2022/12/20 09:48:22;;;;;;;8.77;7.60;;;;;;;;;;5001680;28;20211;-74
2022/12/20 09:51:14;;;;;;;12.27;7.70;;;;;;;;;;4999527;28;20774;-75
2022/12/20 09:53:52;;;;;;;10.50;7.70;;;;;;;;;;4998510;28;20171;-74
2022/12/20 09:56:39;;;;;;;10.80;7.70;;;;;;;;;;5001043;28;20274;-75
2022/12/20 09:59:10;;;;;;;10.27;7.20;;;;;;;;;;5000243;28;20205;-74
2022/12/20 10:01:37;;;;;;;9.87;6.97;;;;;;;;;;5003894;28;20536;-74
2022/12/20 10:04:05;;;;;;;9.23;6.53;;;;;;;;;;5001580;28;20184;-74
2022/12/20 10:06:37;;;;;;;8.27;6.60;;;;;;;;;;5001263;28;20223;-74
2022/12/20 10:09:05;;;;;;;7.87;6.63;;;;;;;;;;4995332;28;20226;-74
2022/12/20 10:11:37;;;;;;;8.20;6.23;;;;;;;;;;4997237;28;20202;-74
2022/12/20 10:14:06;;;;;;;6.50;5.70;;;;;;;;;;5001222;28;20212;-74
2022/12/20 10:16:32;;;;;;;7.43;6.17;;;;;;;;;;4998858;28;21044;-74
2022/12/20 10:19:25;;;;;;;7.00;6.00;;;;;;;;;;4998542;28;20243;-74
2022/12/20 10:21:55;;;;;;;9.23;6.07;;;;;;;;;;4970283;28;20248;-74
2022/12/20 10:24:26;;;;;;;8.17;5.90;;;;;;;;;;4988672;28;20183;-74
2022/12/20 10:26:52;;;;;;;9.00;6.23;;;;;;;;;;4980160;28;20218;-74
2022/12/20 10:29:20;;;;;;;6.77;6.07;;;;;;;;;;4999635;28;20194;-74
2022/12/20 10:31:47;;;;;;;8.40;5.87;;;;;;;;;;4997793;28;20223;-75
2022/12/20 10:34:14;;;;;;;6.80;5.13;;;;;;;;;;4996025;28;20191;-74
2022/12/20 10:36:40;;;;;;;6.77;5.33;;;;;;;;;;4996744;28;20238;-74
2022/12/20 10:39:08;;;;;;;7.33;5.40;;;;;;;;;;4999599;28;20269;-74
2022/12/20 10:41:41;;;;;;;6.50;5.60;;;;;;;;;;4994676;28;20199;-75
2022/12/20 10:44:14;;;;;;;8.17;5.63;;;;;;;;;;4996818;28;20175;-74
2022/12/20 10:46:46;;;;;;;7.40;5.33;;;;;;;;;;4996669;28;20191;-74
2022/12/20 10:49:31;;;;;;;7.87;5.13;;;;;;;;;;4999283;28;20213;-74
2022/12/20 10:52:23;;;;;;;6.50;5.53;;;;;;;;;;4996054;28;20254;-74
2022/12/20 10:54:50;;;;;;;8.33;5.90;;;;;;;;;;4995031;28;20214;-74
2022/12/20 10:57:21;;;;;;;8.07;6.83;;;;;;;;;;4995592;28;20191;-74
2022/12/20 10:59:52;;;;;;;9.50;7.00;;;;;;;;;;4992787;28;20216;-74
2022/12/20 11:02:27;;;;;;;9.63;7.07;;;;;;;;;;4994942;28;20199;-74
2022/12/20 11:05:00;;;;;;;8.30;6.43;;;;;;;;;;4992768;28;20179;-75
2022/12/20 11:07:29;;;;;;;8.13;6.37;;;;;;;;;;4994785;28;20195;-74
2022/12/20 11:09:59;;;;;;;7.60;5.90;;;;;;;;;;4998303;28;20191;-75
2022/12/20 11:12:26;;;;;;;9.70;6.07;;;;;;;;;;4999829;28;20697;-74
2022/12/20 11:15:06;;;;;;;8.90;6.20;;;;;;;;;;4998200;28;20214;-74
2022/12/20 11:17:37;;;;;;;11.53;6.67;;;;;;;;;;4996646;28;20266;-77
2022/12/20 11:20:12;;;;;;;8.50;6.20;;;;;;;;;;4994843;28;20207;-74
2022/12/20 11:22:38;;;;;;;8.70;5.70;;;;;;;;;;4994297;28;20181;-74
2022/12/20 11:25:19;;;;;;;7.63;5.80;;;;;;;;;;4996234;28;20176;-74
2022/12/20 11:27:45;;;;;;;8.73;6.50;;;;;;;;;;4994436;28;20198;-74
2022/12/20 11:30:14;;;;;;;10.13;6.27;;;;;;;;;;4993882;28;20756;-74
2022/12/20 11:32:45;;;;;;;9.77;6.20;;;;;;;;;;4995781;28;20183;-74
2022/12/20 11:35:17;;;;;;;6.33;5.43;;;;;;;;;;4997805;28;20226;-73
2022/12/20 11:38:04;;;;;;;7.30;5.00;;;;;;;;;;4997879;28;20198;-74
2022/12/20 11:40:32;;;;;;;6.80;5.30;;;;;;;;;;4999820;28;20338;-74
2022/12/20 11:43:01;;;;;;;5.57;4.90;;;;;;;;;;4999015;28;20179;-74
2022/12/20 11:45:31;;;;;;;6.63;5.37;;;;;;;;;;5000641;28;20194;-74
2022/12/20 11:48:00;;;;;;;5.67;4.60;;;;;;;;;;4999871;28;20184;-73
2022/12/20 11:50:38;;;;;;;6.37;5.20;;;;;;;;;;5002427;28;20812;-74
2022/12/20 11:53:08;;;;;;;6.63;5.87;;;;;;;;;;4998090;28;20206;-74
2022/12/20 11:55:36;;;;;;;9.00;6.10;;;;;;;;;;4998642;28;20750;-74
2022/12/20 11:58:10;;;;;;;7.57;6.00;;;;;;;;;;4998568;28;20183;-72
2022/12/20 12:00:38;;;;;;;8.00;6.67;;;;;;;;;;5001667;28;20246;-75
2022/12/20 12:03:10;;;;;;;6.73;5.60;;;;;;;;;;5000002;28;20173;-74
2022/12/20 12:05:48;;;;;;;6.90;5.57;;;;;;;;;;4999359;28;20853;-74
2022/12/20 12:08:18;;;;;;;6.83;5.30;;;;;;;;;;5003431;28;20837;-73
2022/12/20 12:10:51;;;;;;;9.60;6.63;;;;;;;;;;5000943;28;20902;-72
2022/12/20 12:13:20;;;;;;;9.80;7.07;;;;;;;;;;5001946;28;20198;-71
2022/12/20 12:16:10;;;;;;;15.60;13.07;;;;;;;;;;4999539;28;20195;-71
2022/12/20 12:18:38;;;;;;;13.33;11.30;;;;;;;;;;5003258;28;22150;-71
2022/12/20 12:21:17;;;;;;;15.47;13.43;;;;;;;;;;4997996;28;20204;-72
2022/12/20 12:23:44;;;;;;;12.47;10.57;;;;;;;;;;4998958;28;20180;-72
2022/12/20 12:26:12;;;;;;;12.70;10.80;;;;;;;;;;4997812;28;20535;-72
2022/12/20 12:28:38;;;;;;;13.33;10.00;;;;;;;;;;4999234;28;20180;-72
2022/12/20 12:31:07;;;;;;;12.60;10.33;;;;;;;;;;4998174;28;20211;-72
2022/12/20 12:33:37;;;;;;;17.37;13.97;;;;;;;;;;4999403;28;20199;-71
2022/12/20 12:36:03;;;;;;;13.33;10.63;;;;;;;;;;4997826;28;20311;-72
2022/12/20 12:38:29;;;;;;;9.97;8.50;;;;;;;;;;5000433;28;20195;-72
2022/12/20 12:41:13;;;;;;;8.20;6.57;;;;;;;;;;4999822;28;20297;-72
2022/12/20 12:43:39;;;;;;;10.90;7.90;;;;;;;;;;5000690;28;20229;-72
2022/12/20 12:46:15;;;;;;;11.27;8.70;;;;;;;;;;4998887;28;20723;-73
2022/12/20 12:48:48;;;;;;;12.37;9.57;;;;;;;;;;4999767;28;20185;-73
2022/12/20 12:51:15;;;;;;;8.73;7.57;;;;;;;;;;5000079;28;20210;-74
2022/12/20 12:53:42;;;;;;;9.00;6.67;;;;;;;;;;4996901;28;20179;-73
2022/12/20 12:56:27;;;;;;;10.13;7.70;;;;;;;;;;5001278;28;20183;-73
2022/12/20 12:59:05;;;;;;;11.57;8.80;;;;;;;;;;4997875;28;20259;-73
2022/12/20 13:01:50;;;;;;;7.97;6.87;;;;;;;;;;4999724;28;20246;-73
2022/12/20 13:04:19;;;;;;;7.93;6.67;;;;;;;;;;4997705;28;20174;-73
2022/12/20 13:06:49;;;;;;;11.30;8.13;;;;;;;;;;5000307;28;20186;-73
2022/12/20 13:09:21;;;;;;;9.97;6.80;;;;;;;;;;4999065;28;20194;-73
2022/12/20 13:11:47;;;;;;;14.00;9.00;;;;;;;;;;4998565;28;20208;-73
2022/12/20 13:14:17;;;;;;;10.67;6.90;;;;;;;;;;4996061;28;20847;-73
2022/12/20 13:16:44;;;;;;;8.40;6.10;;;;;;;;;;4997140;28;20183;-74
2022/12/20 13:19:25;;;;;;;8.77;6.10;;;;;;;;;;4998203;28;20218;-74
2022/12/20 13:21:58;;;;;;;8.07;5.63;;;;;;;;;;4997954;28;20339;-74
2022/12/20 13:24:36;;;;;;;8.53;6.70;;;;;;;;;;4999019;28;20598;-73
2022/12/20 13:27:03;;;;;;;10.83;7.27;;;;;;;;;;4997396;28;20194;-73
2022/12/20 13:29:34;;;;;;;9.67;6.83;;;;;;;;;;4998809;28;20188;-74
2022/12/20 13:32:00;;;;;;;11.27;7.43;;;;;;;;;;4997060;28;20241;-74
2022/12/20 13:34:53;;;;;;;12.83;8.50;;;;;;;;;;4997130;28;20195;-74
2022/12/20 13:37:26;;;;;;;14.83;10.90;;;;;;;;;;4996552;28;20267;-73
2022/12/20 13:39:52;;;;;;;13.13;9.27;;;;;;;;;;4996738;28;20208;-75
2022/12/20 13:42:32;;;;;;;11.27;8.47;;;;;;;;;;4998533;28;20215;-74
2022/12/20 13:45:01;;;;;;;10.23;7.67;;;;;;;;;;4996222;28;20197;-74
2022/12/20 13:47:36;;;;;;;10.40;6.90;;;;;;;;;;4996320;28;20660;-74
2022/12/20 13:50:20;;;;;;;8.67;6.43;;;;;;;;;;4997854;28;20193;-73
2022/12/20 13:52:48;;;;;;;14.47;8.83;;;;;;;;;;4997717;28;20186;-73
2022/12/20 13:55:24;;;;;;;11.30;8.90;;;;;;;;;;4995053;28;20179;-73
2022/12/20 13:57:51;;;;;;;11.23;7.33;;;;;;;;;;4995551;28;20279;-73
2022/12/20 14:00:18;;;;;;;11.33;7.00;;;;;;;;;;4995663;28;20278;-73
2022/12/20 14:02:45;;;;;;;10.60;7.67;;;;;;;;;;4999598;28;20191;-73
2022/12/20 14:05:25;;;;;;;10.00;7.47;;;;;;;;;;5003680;28;20174;-73
2022/12/20 14:08:02;;;;;;;8.97;6.87;;;;;;;;;;5004293;28;20289;-74
2022/12/20 14:10:30;;;;;;;9.80;7.80;;;;;;;;;;5001121;28;20188;-73
2022/12/20 14:12:56;;;;;;;10.40;7.47;;;;;;;;;;5000234;28;22091;-74
2022/12/20 14:15:27;;;;;;;8.53;6.80;;;;;;;;;;4999869;28;20194;-73
2022/12/20 14:17:53;;;;;;;10.20;7.37;;;;;;;;;;4998627;28;20187;-74
2022/12/20 14:20:24;;;;;;;10.47;7.60;;;;;;;;;;4996748;28;20807;-74
2022/12/20 14:22:53;;;;;;;9.30;7.33;;;;;;;;;;4996044;28;20270;-73
2022/12/20 14:25:43;;;;;;;9.70;7.07;;;;;;;;;;4996969;28;20191;-73
2022/12/20 14:28:29;;;;;;;9.57;7.10;;;;;;;;;;4990391;28;20230;-74
2022/12/20 14:30:56;;;;;;;10.53;6.97;;;;;;;;;;4999173;28;20267;-74
2022/12/20 14:33:26;;;;;;;9.43;6.93;;;;;;;;;;4998460;28;20819;-74
2022/12/20 14:35:53;;;;;;;9.13;7.30;;;;;;;;;;4999836;28;20257;-73
2022/12/20 14:38:24;;;;;;;9.87;6.97;;;;;;;;;;4997847;28;20274;-74
2022/12/20 14:40:51;;;;;;;15.83;7.63;;;;;;;;;;4995408;28;20203;-74
2022/12/20 14:43:24;;;;;;;9.83;7.60;;;;;;;;;;4999397;28;20214;-74
2022/12/20 14:46:05;;;;;;;13.10;7.50;;;;;;;;;;4994772;28;20274;-74
2022/12/20 14:48:31;;;;;;;10.13;7.63;;;;;;;;;;4998678;28;20903;-73